sensor_id;sensor_type;location;lat;lon;timestamp;pressure;altitude;pressure_sealevel;temperature;humidity
10202;BME280;5143;42.584;23.164;2023-03-01T00:02:15;92892.25;;;6.28;100.00
10202;BME280;5143;42.584;23.164;2023-03-01T00:04:42;92887.56;;;6.19;100.00
10202;BME280;5143;42.584;23.164;2023-03-01T00:07:08;92882.44;;;6.21;100.00
10202;BME280;5143;42.584;23.164;2023-03-01T00:09:37;92878.50;;;6.13;100.00
10202;BME280;5143;42.584;23.164;2023-03-01T00:12:05;92876.69;;;6.10;100.00
10202;BME280;5143;42.584;23.164;2023-03-01T00:14:32;92867.66;;;6.13;100.00
10202;BME280;5143;42.584;23.164;2023-03-01T00:16:59;92863.72;;;6.05;100.00
10202;BME280;5143;42.584;23.164;2023-03-01T00:19:26;92857.88;;;6.07;100.00
10202;BME280;5143;42.584;23.164;2023-03-01T00:21:53;92851.38;;;6.04;100.00
10202;BME280;5143;42.584;23.164;2023-03-01T00:24:20;92855.84;;;5.89;100.00
10202;BME280;5143;42.584;23.164;2023-03-01T00:26:48;92851.94;;;5.90;100.00
10202;BME280;5143;42.584;23.164;2023-03-01T00:29:15;92844.41;;;5.85;100.00
10202;BME280;5143;42.584;23.164;2023-03-01T00:31:41;92841.16;;;5.77;100.00
10202;BME280;5143;42.584;23.164;2023-03-01T00:34:09;92835.38;;;5.66;100.00
10202;BME280;5143;42.584;23.164;2023-03-01T00:36:36;92837.34;;;5.66;100.00
10202;BME280;5143;42.584;23.164;2023-03-01T00:39:05;92840.38;;;5.68;100.00
10202;BME280;5143;42.584;23.164;2023-03-01T00:41:31;92853.59;;;5.66;100.00
10202;BME280;5143;42.584;23.164;2023-03-01T00:44:01;92851.50;;;5.70;100.00
10202;BME280;5143;42.584;23.164;2023-03-01T00:46:28;92861.16;;;5.71;100.00
10202;BME280;5143;42.584;23.164;2023-03-01T00:48:55;92863.84;;;5.71;100.00
10202;BME280;5143;42.584;23.164;2023-03-01T00:51:24;92867.16;;;5.66;100.00
10202;BME280;5143;42.584;23.164;2023-03-01T00:53:51;92862.97;;;5.74;100.00
10202;BME280;5143;42.584;23.164;2023-03-01T00:56:19;92871.88;;;5.83;100.00
10202;BME280;5143;42.584;23.164;2023-03-01T00:58:46;92871.81;;;5.96;100.00
10202;BME280;5143;42.584;23.164;2023-03-01T01:01:16;92878.88;;;5.93;100.00
10202;BME280;5143;42.584;23.164;2023-03-01T01:03:45;92874.59;;;5.83;100.00
10202;BME280;5143;42.584;23.164;2023-03-01T01:06:16;92873.28;;;5.88;100.00
10202;BME280;5143;42.584;23.164;2023-03-01T01:08:43;92870.06;;;5.80;100.00
10202;BME280;5143;42.584;23.164;2023-03-01T01:11:10;92867.44;;;5.89;100.00
10202;BME280;5143;42.584;23.164;2023-03-01T01:13:37;92868.78;;;5.94;100.00
10202;BME280;5143;42.584;23.164;2023-03-01T01:16:05;92864.50;;;5.84;100.00
10202;BME280;5143;42.584;23.164;2023-03-01T01:18:33;92861.94;;;5.80;100.00
10202;BME280;5143;42.584;23.164;2023-03-01T01:21:04;92859.91;;;5.63;100.00
10202;BME280;5143;42.584;23.164;2023-03-01T01:23:31;92862.91;;;5.65;100.00
10202;BME280;5143;42.584;23.164;2023-03-01T01:26:03;92861.41;;;5.64;100.00
10202;BME280;5143;42.584;23.164;2023-03-01T01:28:30;92859.28;;;5.59;100.00
10202;BME280;5143;42.584;23.164;2023-03-01T01:30:57;92863.63;;;5.56;100.00
10202;BME280;5143;42.584;23.164;2023-03-01T01:33:24;92868.91;;;5.60;100.00
10202;BME280;5143;42.584;23.164;2023-03-01T01:35:52;92868.63;;;5.67;100.00
10202;BME280;5143;42.584;23.164;2023-03-01T01:38:19;92870.75;;;5.72;100.00
10202;BME280;5143;42.584;23.164;2023-03-01T01:40:48;92869.56;;;5.73;100.00
10202;BME280;5143;42.584;23.164;2023-03-01T01:43:19;92866.28;;;5.78;100.00
10202;BME280;5143;42.584;23.164;2023-03-01T01:45:47;92861.63;;;5.78;100.00
10202;BME280;5143;42.584;23.164;2023-03-01T01:48:17;92859.69;;;5.79;100.00
10202;BME280;5143;42.584;23.164;2023-03-01T01:50:45;92871.47;;;5.85;100.00
10202;BME280;5143;42.584;23.164;2023-03-01T01:53:17;92868.50;;;5.92;100.00
10202;BME280;5143;42.584;23.164;2023-03-01T01:55:47;92857.94;;;5.94;100.00
10202;BME280;5143;42.584;23.164;2023-03-01T01:58:17;92863.38;;;5.94;100.00
10202;BME280;5143;42.584;23.164;2023-03-01T02:00:45;92852.31;;;5.79;100.00
10202;BME280;5143;42.584;23.164;2023-03-01T02:03:15;92845.78;;;5.68;100.00
10202;BME280;5143;42.584;23.164;2023-03-01T02:05:46;92833.13;;;5.65;100.00
10202;BME280;5143;42.584;23.164;2023-03-01T02:08:19;92827.41;;;5.63;100.00
10202;BME280;5143;42.584;23.164;2023-03-01T02:10:48;92828.59;;;5.62;100.00
10202;BME280;5143;42.584;23.164;2023-03-01T02:13:16;92816.16;;;5.43;100.00
10202;BME280;5143;42.584;23.164;2023-03-01T02:15:42;92824.28;;;5.43;100.00
10202;BME280;5143;42.584;23.164;2023-03-01T02:18:12;92828.81;;;5.46;100.00
10202;BME280;5143;42.584;23.164;2023-03-01T02:20:46;92829.72;;;5.43;100.00
10202;BME280;5143;42.584;23.164;2023-03-01T02:23:17;92824.75;;;5.41;100.00
10202;BME280;5143;42.584;23.164;2023-03-01T02:25:48;92829.75;;;5.52;100.00
10202;BME280;5143;42.584;23.164;2023-03-01T02:28:33;92823.00;;;5.56;100.00
10202;BME280;5143;42.584;23.164;2023-03-01T02:31:02;92828.53;;;5.53;100.00
10202;BME280;5143;42.584;23.164;2023-03-01T02:33:47;92820.44;;;5.53;100.00
10202;BME280;5143;42.584;23.164;2023-03-01T02:36:17;92822.56;;;5.58;100.00
10202;BME280;5143;42.584;23.164;2023-03-01T02:38:45;92821.50;;;5.55;100.00
10202;BME280;5143;42.584;23.164;2023-03-01T02:41:15;92818.22;;;5.60;100.00
10202;BME280;5143;42.584;23.164;2023-03-01T02:43:45;92822.59;;;5.67;100.00
10202;BME280;5143;42.584;23.164;2023-03-01T02:46:15;92824.88;;;5.68;100.00
10202;BME280;5143;42.584;23.164;2023-03-01T02:48:44;92816.00;;;5.68;100.00
10202;BME280;5143;42.584;23.164;2023-03-01T02:51:21;92818.69;;;5.68;100.00
10202;BME280;5143;42.584;23.164;2023-03-01T02:53:56;92823.53;;;5.73;100.00
10202;BME280;5143;42.584;23.164;2023-03-01T02:56:26;92812.81;;;5.60;100.00
10202;BME280;5143;42.584;23.164;2023-03-01T02:58:54;92819.88;;;5.67;100.00
10202;BME280;5143;42.584;23.164;2023-03-01T03:01:27;92814.66;;;5.72;100.00
10202;BME280;5143;42.584;23.164;2023-03-01T03:04:02;92804.63;;;5.51;100.00
10202;BME280;5143;42.584;23.164;2023-03-01T03:06:29;92812.66;;;5.64;100.00
10202;BME280;5143;42.584;23.164;2023-03-01T03:08:56;92814.31;;;5.61;100.00
10202;BME280;5143;42.584;23.164;2023-03-01T03:11:23;92817.31;;;5.63;100.00
10202;BME280;5143;42.584;23.164;2023-03-01T03:13:50;92812.97;;;5.66;100.00
10202;BME280;5143;42.584;23.164;2023-03-01T03:16:18;92820.19;;;5.69;100.00
10202;BME280;5143;42.584;23.164;2023-03-01T03:18:45;92813.88;;;5.63;100.00
10202;BME280;5143;42.584;23.164;2023-03-01T03:21:13;92804.88;;;5.66;100.00
10202;BME280;5143;42.584;23.164;2023-03-01T03:23:39;92804.53;;;5.64;100.00
10202;BME280;5143;42.584;23.164;2023-03-01T03:26:06;92814.22;;;5.74;100.00
10202;BME280;5143;42.584;23.164;2023-03-01T03:28:34;92809.00;;;5.58;100.00
10202;BME280;5143;42.584;23.164;2023-03-01T03:31:01;92818.41;;;5.66;100.00
10202;BME280;5143;42.584;23.164;2023-03-01T03:33:30;92814.34;;;5.70;100.00
10202;BME280;5143;42.584;23.164;2023-03-01T03:35:57;92819.19;;;5.75;100.00
10202;BME280;5143;42.584;23.164;2023-03-01T03:38:24;92825.59;;;5.69;100.00
10202;BME280;5143;42.584;23.164;2023-03-01T03:40:54;92825.59;;;5.69;100.00
10202;BME280;5143;42.584;23.164;2023-03-01T03:43:26;92828.66;;;5.71;100.00
10202;BME280;5143;42.584;23.164;2023-03-01T03:45:53;92825.13;;;5.61;100.00
10202;BME280;5143;42.584;23.164;2023-03-01T03:48:23;92829.06;;;5.60;100.00
10202;BME280;5143;42.584;23.164;2023-03-01T03:50:52;92829.34;;;5.62;100.00
10202;BME280;5143;42.584;23.164;2023-03-01T03:53:20;92826.00;;;5.49;100.00
10202;BME280;5143;42.584;23.164;2023-03-01T03:55:47;92831.59;;;5.55;100.00
10202;BME280;5143;42.584;23.164;2023-03-01T03:58:18;92845.13;;;5.55;100.00
10202;BME280;5143;42.584;23.164;2023-03-01T04:00:47;92838.94;;;5.54;100.00
10202;BME280;5143;42.584;23.164;2023-03-01T04:03:15;92844.31;;;5.45;100.00
10202;BME280;5143;42.584;23.164;2023-03-01T04:05:44;92841.41;;;5.40;100.00
10202;BME280;5143;42.584;23.164;2023-03-01T04:08:13;92838.91;;;5.45;100.00
10202;BME280;5143;42.584;23.164;2023-03-01T04:10:42;92841.03;;;5.50;100.00
10202;BME280;5143;42.584;23.164;2023-03-01T04:13:11;92832.69;;;5.35;100.00
10202;BME280;5143;42.584;23.164;2023-03-01T04:15:38;92839.53;;;5.49;100.00
10202;BME280;5143;42.584;23.164;2023-03-01T04:18:05;92831.22;;;5.44;100.00
10202;BME280;5143;42.584;23.164;2023-03-01T04:20:34;92840.25;;;5.50;100.00
10202;BME280;5143;42.584;23.164;2023-03-01T04:23:03;92839.00;;;5.42;100.00
10202;BME280;5143;42.584;23.164;2023-03-01T04:25:39;92837.53;;;5.41;100.00
10202;BME280;5143;42.584;23.164;2023-03-01T04:28:06;92837.53;;;5.41;100.00
10202;BME280;5143;42.584;23.164;2023-03-01T04:30:33;92834.84;;;5.50;100.00
10202;BME280;5143;42.584;23.164;2023-03-01T04:33:03;92829.72;;;5.43;100.00
10202;BME280;5143;42.584;23.164;2023-03-01T04:35:30;92826.28;;;5.20;100.00
10202;BME280;5143;42.584;23.164;2023-03-01T04:37:57;92828.16;;;5.32;100.00
10202;BME280;5143;42.584;23.164;2023-03-01T04:40:24;92829.47;;;5.28;100.00
10202;BME280;5143;42.584;23.164;2023-03-01T04:42:53;92828.97;;;5.20;100.00
10202;BME280;5143;42.584;23.164;2023-03-01T04:45:20;92834.75;;;5.31;100.00
10202;BME280;5143;42.584;23.164;2023-03-01T04:47:46;92833.59;;;5.42;100.00
10202;BME280;5143;42.584;23.164;2023-03-01T04:50:15;92834.38;;;5.42;100.00
10202;BME280;5143;42.584;23.164;2023-03-01T04:52:43;92824.91;;;5.47;100.00
10202;BME280;5143;42.584;23.164;2023-03-01T04:55:10;92833.97;;;5.53;100.00
10202;BME280;5143;42.584;23.164;2023-03-01T04:57:37;92833.56;;;5.32;100.00
10202;BME280;5143;42.584;23.164;2023-03-01T05:00:08;92833.25;;;5.30;100.00
10202;BME280;5143;42.584;23.164;2023-03-01T05:02:49;92832.53;;;5.39;100.00
10202;BME280;5143;42.584;23.164;2023-03-01T05:05:22;92842.94;;;5.41;100.00
10202;BME280;5143;42.584;23.164;2023-03-01T05:07:52;92837.53;;;5.41;100.00
10202;BME280;5143;42.584;23.164;2023-03-01T05:10:19;92836.19;;;5.45;100.00
10202;BME280;5143;42.584;23.164;2023-03-01T05:12:46;92846.53;;;5.38;100.00
10202;BME280;5143;42.584;23.164;2023-03-01T05:15:14;92849.09;;;5.41;100.00
10202;BME280;5143;42.584;23.164;2023-03-01T05:17:41;92846.56;;;5.47;100.00
10202;BME280;5143;42.584;23.164;2023-03-01T05:20:09;92857.72;;;5.49;100.00
10202;BME280;5143;42.584;23.164;2023-03-01T05:22:36;92846.34;;;5.32;100.00
10202;BME280;5143;42.584;23.164;2023-03-01T05:25:04;92843.81;;;5.38;100.00
10202;BME280;5143;42.584;23.164;2023-03-01T05:27:32;92848.00;;;5.38;100.00
10202;BME280;5143;42.584;23.164;2023-03-01T05:29:59;92849.34;;;5.34;100.00
10202;BME280;5143;42.584;23.164;2023-03-01T05:32:40;92852.75;;;5.25;100.00
10202;BME280;5143;42.584;23.164;2023-03-01T05:35:08;92847.91;;;5.20;100.00
10202;BME280;5143;42.584;23.164;2023-03-01T05:37:39;92849.34;;;5.34;100.00
10202;BME280;5143;42.584;23.164;2023-03-01T05:40:06;92856.78;;;5.43;100.00
10202;BME280;5143;42.584;23.164;2023-03-01T05:42:41;92862.88;;;5.56;100.00
10202;BME280;5143;42.584;23.164;2023-03-01T05:45:08;92860.91;;;5.56;100.00
10202;BME280;5143;42.584;23.164;2023-03-01T05:47:35;92860.47;;;5.58;100.00
10202;BME280;5143;42.584;23.164;2023-03-01T05:50:04;92857.50;;;5.65;100.00
10202;BME280;5143;42.584;23.164;2023-03-01T05:52:32;92876.69;;;5.58;100.00
10202;BME280;5143;42.584;23.164;2023-03-01T05:54:59;92873.81;;;5.52;100.00
10202;BME280;5143;42.584;23.164;2023-03-01T05:57:28;92875.13;;;5.69;100.00
10202;BME280;5143;42.584;23.164;2023-03-01T05:59:55;92880.28;;;5.76;100.00
10202;BME280;5143;42.584;23.164;2023-03-01T06:02:21;92884.94;;;5.76;100.00
10202;BME280;5143;42.584;23.164;2023-03-01T06:04:48;92896.84;;;5.78;100.00
10202;BME280;5143;42.584;23.164;2023-03-01T06:07:16;92895.50;;;5.83;100.00
10202;BME280;5143;42.584;23.164;2023-03-01T06:09:43;92900.38;;;5.88;100.00
10202;BME280;5143;42.584;23.164;2023-03-01T06:12:10;92899.81;;;5.93;100.00
10202;BME280;5143;42.584;23.164;2023-03-01T06:14:36;92901.19;;;5.76;100.00
10202;BME280;5143;42.584;23.164;2023-03-01T06:17:03;92904.38;;;5.83;100.00
10202;BME280;5143;42.584;23.164;2023-03-01T06:19:30;92910.72;;;5.59;100.00
10202;BME280;5143;42.584;23.164;2023-03-01T06:21:57;92907.50;;;5.73;100.00
10202;BME280;5143;42.584;23.164;2023-03-01T06:24:25;92903.19;;;5.84;100.00
10202;BME280;5143;42.584;23.164;2023-03-01T06:26:54;92906.47;;;6.01;100.00
10202;BME280;5143;42.584;23.164;2023-03-01T06:29:20;92915.03;;;6.00;100.00
10202;BME280;5143;42.584;23.164;2023-03-01T06:31:47;92912.72;;;5.89;100.00
10202;BME280;5143;42.584;23.164;2023-03-01T06:34:14;92901.81;;;5.80;100.00
10202;BME280;5143;42.584;23.164;2023-03-01T06:36:41;92914.53;;;5.92;100.00
10202;BME280;5143;42.584;23.164;2023-03-01T06:39:08;92900.28;;;6.01;100.00
10202;BME280;5143;42.584;23.164;2023-03-01T06:41:36;92914.31;;;6.08;100.00
10202;BME280;5143;42.584;23.164;2023-03-01T06:44:03;92916.06;;;5.93;100.00
10202;BME280;5143;42.584;23.164;2023-03-01T06:46:30;92921.78;;;5.95;100.00
10202;BME280;5143;42.584;23.164;2023-03-01T06:48:57;92911.06;;;5.91;100.00
10202;BME280;5143;42.584;23.164;2023-03-01T06:51:23;92922.56;;;6.05;100.00
10202;BME280;5143;42.584;23.164;2023-03-01T06:53:50;92920.19;;;6.07;100.00
10202;BME280;5143;42.584;23.164;2023-03-01T06:56:17;92921.25;;;6.09;100.00
10202;BME280;5143;42.584;23.164;2023-03-01T06:58:45;92919.78;;;6.17;100.00
10202;BME280;5143;42.584;23.164;2023-03-01T07:01:12;92926.69;;;6.18;100.00
10202;BME280;5143;42.584;23.164;2023-03-01T07:03:38;92926.91;;;6.33;100.00
10202;BME280;5143;42.584;23.164;2023-03-01T07:06:05;92912.03;;;6.46;100.00
10202;BME280;5143;42.584;23.164;2023-03-01T07:08:32;92925.06;;;6.70;100.00
10202;BME280;5143;42.584;23.164;2023-03-01T07:10:59;92930.63;;;6.66;100.00
10202;BME280;5143;42.584;23.164;2023-03-01T07:13:27;92923.53;;;6.60;100.00
10202;BME280;5143;42.584;23.164;2023-03-01T07:15:55;92923.97;;;6.58;100.00
10202;BME280;5143;42.584;23.164;2023-03-01T07:18:22;92916.72;;;6.46;100.00
10202;BME280;5143;42.584;23.164;2023-03-01T07:20:49;92919.31;;;6.68;100.00
10202;BME280;5143;42.584;23.164;2023-03-01T07:23:16;92925.53;;;6.77;100.00
10202;BME280;5143;42.584;23.164;2023-03-01T07:25:43;92915.75;;;6.80;100.00
10202;BME280;5143;42.584;23.164;2023-03-01T07:28:09;92919.97;;;6.90;100.00
10202;BME280;5143;42.584;23.164;2023-03-01T07:30:36;92916.22;;;7.05;100.00
10202;BME280;5143;42.584;23.164;2023-03-01T07:33:04;92922.13;;;7.22;100.00
10202;BME280;5143;42.584;23.164;2023-03-01T07:35:31;92929.06;;;7.14;100.00
10202;BME280;5143;42.584;23.164;2023-03-01T07:37:58;92922.53;;;7.11;100.00
10202;BME280;5143;42.584;23.164;2023-03-01T07:40:25;92924.53;;;7.11;100.00
10202;BME280;5143;42.584;23.164;2023-03-01T07:42:55;92927.53;;;7.13;100.00
10202;BME280;5143;42.584;23.164;2023-03-01T07:45:23;92927.81;;;7.06;100.00
10202;BME280;5143;42.584;23.164;2023-03-01T07:47:50;92927.84;;;6.97;100.00
10202;BME280;5143;42.584;23.164;2023-03-01T07:50:18;92923.59;;;6.96;100.00
10202;BME280;5143;42.584;23.164;2023-03-01T07:52:45;92923.31;;;7.03;100.00
10202;BME280;5143;42.584;23.164;2023-03-01T07:55:13;92928.59;;;6.97;100.00
10202;BME280;5143;42.584;23.164;2023-03-01T07:57:39;92917.84;;;6.85;100.00
10202;BME280;5143;42.584;23.164;2023-03-01T08:00:09;92916.06;;;7.00;100.00
10202;BME280;5143;42.584;23.164;2023-03-01T08:02:36;92911.56;;;6.97;100.00
10202;BME280;5143;42.584;23.164;2023-03-01T08:05:03;92903.09;;;7.13;100.00
10202;BME280;5143;42.584;23.164;2023-03-01T08:07:32;92905.66;;;7.26;100.00
10202;BME280;5143;42.584;23.164;2023-03-01T08:09:59;92911.84;;;7.35;100.00
10202;BME280;5143;42.584;23.164;2023-03-01T08:12:25;92917.72;;;7.43;100.00
10202;BME280;5143;42.584;23.164;2023-03-01T08:14:53;92911.41;;;7.46;100.00
10202;BME280;5143;42.584;23.164;2023-03-01T08:17:20;92907.31;;;7.59;100.00
10202;BME280;5143;42.584;23.164;2023-03-01T08:19:46;92914.28;;;7.33;100.00
10202;BME280;5143;42.584;23.164;2023-03-01T08:22:13;92917.28;;;7.08;100.00
10202;BME280;5143;42.584;23.164;2023-03-01T08:24:41;92916.22;;;7.05;100.00
10202;BME280;5143;42.584;23.164;2023-03-01T08:27:08;92912.91;;;7.10;100.00
10202;BME280;5143;42.584;23.164;2023-03-01T08:29:35;92910.94;;;7.20;100.00
10202;BME280;5143;42.584;23.164;2023-03-01T08:32:02;92906.00;;;7.28;100.00
10202;BME280;5143;42.584;23.164;2023-03-01T08:34:28;92916.53;;;7.17;100.00
10202;BME280;5143;42.584;23.164;2023-03-01T08:36:56;92920.63;;;7.30;100.00
10202;BME280;5143;42.584;23.164;2023-03-01T08:39:23;92916.22;;;7.51;100.00
10202;BME280;5143;42.584;23.164;2023-03-01T08:41:51;92909.56;;;7.70;100.00
10202;BME280;5143;42.584;23.164;2023-03-01T08:44:18;92915.25;;;7.81;100.00
10202;BME280;5143;42.584;23.164;2023-03-01T08:46:46;92922.50;;;7.93;100.00
10202;BME280;5143;42.584;23.164;2023-03-01T08:49:16;92927.69;;;8.24;100.00
10202;BME280;5143;42.584;23.164;2023-03-01T08:51:43;92923.78;;;8.16;100.00
10202;BME280;5143;42.584;23.164;2023-03-01T08:54:12;92919.69;;;8.20;100.00
10202;BME280;5143;42.584;23.164;2023-03-01T08:56:40;92921.66;;;8.29;100.00
10202;BME280;5143;42.584;23.164;2023-03-01T08:59:09;92917.31;;;8.55;100.00
10202;BME280;5143;42.584;23.164;2023-03-01T09:01:36;92914.88;;;8.57;100.00
10202;BME280;5143;42.584;23.164;2023-03-01T09:04:03;92906.09;;;8.62;100.00
10202;BME280;5143;42.584;23.164;2023-03-01T09:06:30;92917.81;;;8.77;100.00
10202;BME280;5143;42.584;23.164;2023-03-01T09:08:58;92920.75;;;8.65;100.00
10202;BME280;5143;42.584;23.164;2023-03-01T09:11:25;92917.31;;;8.55;100.00
10202;BME280;5143;42.584;23.164;2023-03-01T09:13:52;92910.91;;;8.67;100.00
10202;BME280;5143;42.584;23.164;2023-03-01T09:16:21;92909.06;;;8.73;100.00
10202;BME280;5143;42.584;23.164;2023-03-01T09:18:49;92907.69;;;8.78;100.00
10202;BME280;5143;42.584;23.164;2023-03-01T09:21:17;92902.63;;;8.62;100.00
10202;BME280;5143;42.584;23.164;2023-03-01T09:23:47;92907.28;;;8.38;100.00
10202;BME280;5143;42.584;23.164;2023-03-01T09:26:16;92917.06;;;8.44;100.00
10202;BME280;5143;42.584;23.164;2023-03-01T09:28:44;92907.69;;;8.45;100.00
10202;BME280;5143;42.584;23.164;2023-03-01T09:31:12;92897.75;;;8.66;100.00
10202;BME280;5143;42.584;23.164;2023-03-01T09:33:41;92906.91;;;9.01;100.00
10202;BME280;5143;42.584;23.164;2023-03-01T09:36:11;92909.13;;;8.88;100.00
10202;BME280;5143;42.584;23.164;2023-03-01T09:38:38;92910.84;;;8.76;100.00
10202;BME280;5143;42.584;23.164;2023-03-01T09:41:10;92906.56;;;8.84;100.00
10202;BME280;5143;42.584;23.164;2023-03-01T09:43:43;92899.47;;;8.87;100.00
10202;BME280;5143;42.584;23.164;2023-03-01T09:46:13;92904.25;;;9.16;100.00
10202;BME280;5143;42.584;23.164;2023-03-01T09:48:46;92903.22;;;9.13;100.00
10202;BME280;5143;42.584;23.164;2023-03-01T09:51:18;92904.63;;;9.23;100.00
10202;BME280;5143;42.584;23.164;2023-03-01T09:53:46;92898.31;;;9.41;100.00
10202;BME280;5143;42.584;23.164;2023-03-01T09:56:17;92897.94;;;9.48;100.00
10202;BME280;5143;42.584;23.164;2023-03-01T09:58:51;92905.66;;;9.64;100.00
10202;BME280;5143;42.584;23.164;2023-03-01T10:01:28;92901.28;;;9.28;100.00
10202;BME280;5143;42.584;23.164;2023-03-01T10:04:24;92898.75;;;9.01;100.00
10202;BME280;5143;42.584;23.164;2023-03-01T10:07:01;92894.50;;;9.24;100.00
10202;BME280;5143;42.584;23.164;2023-03-01T10:09:33;92896.28;;;9.27;100.00
10202;BME280;5143;42.584;23.164;2023-03-01T10:12:04;92891.13;;;9.29;100.00
10202;BME280;5143;42.584;23.164;2023-03-01T10:14:36;92886.66;;;9.40;100.00
10202;BME280;5143;42.584;23.164;2023-03-01T10:17:09;92885.34;;;9.50;100.00
10202;BME280;5143;42.584;23.164;2023-03-01T10:19:42;92881.50;;;9.57;100.00
10202;BME280;5143;42.584;23.164;2023-03-01T10:22:14;92883.59;;;9.77;100.00
10202;BME280;5143;42.584;23.164;2023-03-01T10:24:41;92887.16;;;9.68;100.00
10202;BME280;5143;42.584;23.164;2023-03-01T10:27:14;92880.75;;;9.42;100.00
10202;BME280;5143;42.584;23.164;2023-03-01T10:29:48;92883.03;;;9.20;100.00
10202;BME280;5143;42.584;23.164;2023-03-01T10:32:18;92876.69;;;9.37;100.00
10202;BME280;5143;42.584;23.164;2023-03-01T10:34:48;92880.19;;;9.53;100.00
10202;BME280;5143;42.584;23.164;2023-03-01T10:37:17;92885.19;;;9.69;100.00
10202;BME280;5143;42.584;23.164;2023-03-01T10:39:57;92882.09;;;9.61;100.00
10202;BME280;5143;42.584;23.164;2023-03-01T10:42:27;92877.78;;;9.69;100.00
10202;BME280;5143;42.584;23.164;2023-03-01T10:44:57;92865.25;;;9.63;100.00
10202;BME280;5143;42.584;23.164;2023-03-01T10:47:26;92873.50;;;9.54;100.00
10202;BME280;5143;42.584;23.164;2023-03-01T10:50:00;92876.91;;;9.92;100.00
10202;BME280;5143;42.584;23.164;2023-03-01T10:52:30;92885.22;;;10.13;100.00
10202;BME280;5143;42.584;23.164;2023-03-01T10:54:59;92887.06;;;10.06;100.00
10202;BME280;5143;42.584;23.164;2023-03-01T10:57:30;92889.34;;;10.23;100.00
10202;BME280;5143;42.584;23.164;2023-03-01T11:02:47;92876.94;;;10.22;100.00
10202;BME280;5143;42.584;23.164;2023-03-01T11:05:25;92892.72;;;10.03;100.00
10202;BME280;5143;42.584;23.164;2023-03-01T11:07:56;92891.03;;;10.20;100.00
10202;BME280;5143;42.584;23.164;2023-03-01T11:10:25;92886.53;;;10.02;100.00
10202;BME280;5143;42.584;23.164;2023-03-01T11:12:53;92883.13;;;9.93;100.00
10202;BME280;5143;42.584;23.164;2023-03-01T11:15:26;92880.28;;;9.73;100.00
10202;BME280;5143;42.584;23.164;2023-03-01T11:17:54;92875.97;;;9.66;100.00
10202;BME280;5143;42.584;23.164;2023-03-01T11:20:28;92862.50;;;9.48;100.00
10202;BME280;5143;42.584;23.164;2023-03-01T11:22:58;92863.66;;;9.71;100.00
10202;BME280;5143;42.584;23.164;2023-03-01T11:25:29;92857.75;;;9.72;100.00
10202;BME280;5143;42.584;23.164;2023-03-01T11:27:58;92858.03;;;9.74;100.00
10202;BME280;5143;42.584;23.164;2023-03-01T11:30:29;92849.66;;;9.63;100.00
10202;BME280;5143;42.584;23.164;2023-03-01T11:33:05;92845.69;;;10.08;100.00
10202;BME280;5143;42.584;23.164;2023-03-01T11:35:43;92837.13;;;10.30;100.00
10202;BME280;5143;42.584;23.164;2023-03-01T11:38:22;92828.94;;;10.30;100.00
10202;BME280;5143;42.584;23.164;2023-03-01T11:40:54;92828.88;;;10.44;100.00
10202;BME280;5143;42.584;23.164;2023-03-01T11:43:33;92823.94;;;10.28;100.00
10202;BME280;5143;42.584;23.164;2023-03-01T11:46:39;92810.75;;;9.77;100.00
10202;BME280;5143;42.584;23.164;2023-03-01T11:49:33;92819.09;;;9.59;100.00
10202;BME280;5143;42.584;23.164;2023-03-01T11:52:11;92819.84;;;9.45;100.00
10202;BME280;5143;42.584;23.164;2023-03-01T11:54:54;92814.19;;;9.34;100.00
10202;BME280;5143;42.584;23.164;2023-03-01T11:57:42;92817.78;;;9.55;100.00
10202;BME280;5143;42.584;23.164;2023-03-01T12:00:25;92820.97;;;9.97;100.00
10202;BME280;5143;42.584;23.164;2023-03-01T12:06:19;92825.56;;;10.05;100.00
10202;BME280;5143;42.584;23.164;2023-03-01T12:08:58;92826.72;;;9.84;100.00
10202;BME280;5143;42.584;23.164;2023-03-01T12:11:46;92814.97;;;9.93;100.00
10202;BME280;5143;42.584;23.164;2023-03-01T12:14:42;92813.66;;;9.88;100.00
10202;BME280;5143;42.584;23.164;2023-03-01T12:17:35;92813.91;;;10.20;100.00
10202;BME280;5143;42.584;23.164;2023-03-01T12:20:14;92805.81;;;10.11;100.00
10202;BME280;5143;42.584;23.164;2023-03-01T12:22:50;92812.13;;;10.17;100.00
10202;BME280;5143;42.584;23.164;2023-03-01T12:25:29;92813.34;;;10.16;100.00
10202;BME280;5143;42.584;23.164;2023-03-01T12:31:10;92808.69;;;9.72;100.00
10202;BME280;5143;42.584;23.164;2023-03-01T12:33:45;92810.75;;;9.77;100.00
10202;BME280;5143;42.584;23.164;2023-03-01T12:36:42;92801.50;;;9.89;100.00
10202;BME280;5143;42.584;23.164;2023-03-01T12:39:24;92800.75;;;10.03;100.00
10202;BME280;5143;42.584;23.164;2023-03-01T12:42:04;92807.03;;;9.95;100.00
10202;BME280;5143;42.584;23.164;2023-03-01T12:44:47;92779.25;;;9.91;100.00
10202;BME280;5143;42.584;23.164;2023-03-01T12:47:36;92813.94;;;9.90;100.00
10202;BME280;5143;42.584;23.164;2023-03-01T12:50:11;92805.19;;;9.72;100.00
10202;BME280;5143;42.584;23.164;2023-03-01T12:52:44;92816.69;;;9.61;100.00
10202;BME280;5143;42.584;23.164;2023-03-01T12:55:23;92812.44;;;9.60;100.00
10202;BME280;5143;42.584;23.164;2023-03-01T12:58:00;92815.25;;;9.51;100.00
10202;BME280;5143;42.584;23.164;2023-03-01T13:00:35;92811.47;;;9.34;100.00
10202;BME280;5143;42.584;23.164;2023-03-01T13:03:12;92816.91;;;9.34;100.00
10202;BME280;5143;42.584;23.164;2023-03-01T13:06:04;92822.56;;;9.30;100.00
10202;BME280;5143;42.584;23.164;2023-03-01T13:08:36;92814.84;;;9.29;100.00
10202;BME280;5143;42.584;23.164;2023-03-01T13:11:11;92804.50;;;9.18;100.00
10202;BME280;5143;42.584;23.164;2023-03-01T13:13:43;92813.03;;;8.97;100.00
10202;BME280;5143;42.584;23.164;2023-03-01T13:19:13;92815.41;;;9.18;100.00
10202;BME280;5143;42.584;23.164;2023-03-01T13:21:41;92817.38;;;9.18;100.00
10202;BME280;5143;42.584;23.164;2023-03-01T13:24:24;92817.19;;;9.21;100.00
10202;BME280;5143;42.584;23.164;2023-03-01T13:27:10;92810.06;;;9.24;100.00
10202;BME280;5143;42.584;23.164;2023-03-01T13:29:49;92810.13;;;9.15;100.00